Terminal Aerodrome Forecast
Issued by NWS Sterling, VA

Current Version | Previous Version | Text Only | Print | Product List | Glossary Off
Versions: 1 2 3 4 5 6 7 8 9 10 11 12 13 14 15 16 17 18

444
FTUS41 KLWX 222037 AAA
TAFMRB
TAF AMD
KMRB 222037Z 2221/2318 32007KT 4SM -RA OVC040
     FM230100 33004KT 3SM -SHRA BR OVC020
     FM230400 32004KT 3SM BR OVC015
     FM231000 32004KT 2SM BR BKN008
     FM231500 35006KT 6SM BR BKN040=

USA.gov is the U.S. government's official web portal to all federal, state and local government web resources and services.